Time;durP1;ratioP1;P1;durP2;ratioP2;P2;SDS_P1;SDS_P2;PMS_P1;PMS_P2;Temp;Humidity;BMP_temperature;BMP_pressure;BME280_temperature;BME280_humidity;BME280_pressure;Samples;Min_cycle;Max_cycle;Signal;HPM_P1;HPM_P2
2022/04/03 00:00:36;;;;;;;21.90;11.88;;;;;;;;;;5012275;28;20079;-43
2022/04/03 00:03:05;;;;;;;18.48;11.65;;;;;;;;;;5012240;28;20109;-43
2022/04/03 00:05:35;;;;;;;17.13;10.77;;;;;;;;;;5012435;28;20061;-44
2022/04/03 00:08:00;;;;;;;18.52;11.10;;;;;;;;;;5012497;28;20382;-43
2022/04/03 00:10:27;;;;;;;23.00;12.63;;;;;;;;;;5012181;28;20026;-43
2022/04/03 00:12:52;;;;;;;20.15;10.73;;;;;;;;;;5012206;28;20124;-44
2022/04/03 00:15:18;;;;;;;20.77;11.32;;;;;;;;;;5012135;28;20057;-43
2022/04/03 00:17:45;;;;;;;21.17;11.93;;;;;;;;;;5012538;28;20113;-46
2022/04/03 00:20:11;;;;;;;16.75;10.85;;;;;;;;;;5012130;28;20493;-44
2022/04/03 00:22:37;;;;;;;21.00;11.57;;;;;;;;;;5012476;28;20458;-44
2022/04/03 00:25:03;;;;;;;20.65;11.25;;;;;;;;;;5012240;28;20088;-47
2022/04/03 00:27:29;;;;;;;20.85;10.35;;;;;;;;;;4994514;28;20053;-48
2022/04/03 00:29:54;;;;;;;20.42;12.05;;;;;;;;;;5012206;28;20060;-42
2022/04/03 00:32:20;;;;;;;21.63;11.65;;;;;;;;;;5012355;28;20022;-44
2022/04/03 00:34:46;;;;;;;18.13;11.35;;;;;;;;;;5011905;28;20085;-46
2022/04/03 00:37:12;;;;;;;18.73;11.45;;;;;;;;;;5012059;28;20022;-43
2022/04/03 00:39:37;;;;;;;16.80;9.82;;;;;;;;;;5012208;28;20096;-44
2022/04/03 00:42:08;;;;;;;19.75;11.20;;;;;;;;;;5012008;28;20452;-44
2022/04/03 00:44:35;;;;;;;16.05;11.00;;;;;;;;;;5012389;28;20026;-45
2022/04/03 00:47:04;;;;;;;21.35;11.50;;;;;;;;;;5012274;28;20025;-44
2022/04/03 00:49:31;;;;;;;19.80;11.85;;;;;;;;;;5012243;28;20037;-42
2022/04/03 00:51:58;;;;;;;20.08;11.98;;;;;;;;;;5011753;28;20065;-44
2022/04/03 00:54:24;;;;;;;17.30;10.73;;;;;;;;;;5013655;28;20037;-42
2022/04/03 00:56:51;;;;;;;16.05;10.60;;;;;;;;;;5015495;28;20080;-45
2022/04/03 00:59:16;;;;;;;15.65;10.52;;;;;;;;;;5015347;28;20030;-43
2022/04/03 01:01:43;;;;;;;17.80;10.85;;;;;;;;;;5015148;28;20032;-43
2022/04/03 01:04:09;;;;;;;17.15;9.95;;;;;;;;;;5015455;28;20057;-42
2022/04/03 01:06:35;;;;;;;17.52;11.20;;;;;;;;;;5015451;28;20030;-45
2022/04/03 01:09:02;;;;;;;18.50;10.90;;;;;;;;;;5015547;28;20101;-44
2022/04/03 01:11:28;;;;;;;15.75;10.15;;;;;;;;;;4997603;28;20022;-44
2022/04/03 01:13:54;;;;;;;18.27;10.93;;;;;;;;;;5015054;28;20498;-44
2022/04/03 01:16:19;;;;;;;21.27;10.55;;;;;;;;;;5015423;28;20117;-44
2022/04/03 01:18:45;;;;;;;14.40;8.45;;;;;;;;;;5015284;28;20029;-44
2022/04/03 01:21:11;;;;;;;14.20;9.48;;;;;;;;;;5014987;28;20470;-39
2022/04/03 01:23:37;;;;;;;13.02;9.05;;;;;;;;;;5015235;28;20034;-40
2022/04/03 01:26:03;;;;;;;16.88;10.10;;;;;;;;;;5014903;28;20101;-42
2022/04/03 01:28:28;;;;;;;14.68;10.02;;;;;;;;;;5015200;28;20029;-44
2022/04/03 01:30:54;;;;;;;14.40;8.50;;;;;;;;;;5014853;28;20064;-43
2022/04/03 01:33:19;;;;;;;15.18;9.32;;;;;;;;;;5014484;28;20034;-43
2022/04/03 01:35:45;;;;;;;17.27;9.57;;;;;;;;;;5014780;28;20104;-44
2022/04/03 01:38:11;;;;;;;18.00;9.65;;;;;;;;;;5014974;28;20111;-47
2022/04/03 01:40:37;;;;;;;14.65;9.35;;;;;;;;;;5014953;28;20026;-43
2022/04/03 01:43:07;;;;;;;15.45;9.60;;;;;;;;;;5014831;28;20168;-42
2022/04/03 01:45:33;;;;;;;12.25;8.50;;;;;;;;;;5014834;28;20026;-44
2022/04/03 01:48:02;;;;;;;13.98;8.40;;;;;;;;;;5014510;28;20520;-44
2022/04/03 01:50:27;;;;;;;15.88;9.10;;;;;;;;;;5014502;28;20053;-45
2022/04/03 01:52:53;;;;;;;15.90;9.23;;;;;;;;;;4996917;28;20053;-44
2022/04/03 01:55:19;;;;;;;16.63;9.80;;;;;;;;;;5014544;28;20042;-44
2022/04/03 01:57:44;;;;;;;15.40;9.35;;;;;;;;;;5014537;28;20505;-42
2022/04/03 02:00:10;;;;;;;15.05;9.32;;;;;;;;;;5014206;28;20022;-45
2022/04/03 02:02:39;;;;;;;15.93;8.88;;;;;;;;;;5014526;28;20495;-43
2022/04/03 02:05:08;;;;;;;13.88;8.60;;;;;;;;;;5014347;28;20060;-42
2022/04/03 02:07:34;;;;;;;14.82;8.98;;;;;;;;;;5014085;28;20037;-44
2022/04/03 02:10:00;;;;;;;14.50;9.30;;;;;;;;;;5014401;28;20026;-44
2022/04/03 02:12:26;;;;;;;13.73;9.18;;;;;;;;;;5014304;28;20394;-44
2022/04/03 02:14:51;;;;;;;14.38;8.73;;;;;;;;;;5013943;28;20026;-43
2022/04/03 02:17:17;;;;;;;14.95;9.13;;;;;;;;;;5013981;28;20026;-44
2022/04/03 02:19:43;;;;;;;14.25;9.35;;;;;;;;;;5013910;28;20110;-44
2022/04/03 02:22:08;;;;;;;14.88;8.15;;;;;;;;;;5013858;28;20026;-43
2022/04/03 02:24:34;;;;;;;16.17;9.82;;;;;;;;;;5014132;28;20029;-41
2022/04/03 02:26:59;;;;;;;14.48;8.63;;;;;;;;;;5013768;28;20061;-42
2022/04/03 02:29:25;;;;;;;13.75;8.45;;;;;;;;;;5013973;28;20108;-40
2022/04/03 02:31:51;;;;;;;15.93;9.13;;;;;;;;;;5013983;28;20061;-39
2022/04/03 02:34:17;;;;;;;13.45;8.60;;;;;;;;;;5013853;28;20036;-42
2022/04/03 02:36:43;;;;;;;15.73;8.85;;;;;;;;;;5013893;28;20034;-41
2022/04/03 02:39:09;;;;;;;15.75;9.60;;;;;;;;;;5013805;28;20104;-41
2022/04/03 02:41:35;;;;;;;16.67;9.75;;;;;;;;;;5013732;28;20050;-39
2022/04/03 02:44:01;;;;;;;19.70;10.90;;;;;;;;;;5013566;28;20061;-39
2022/04/03 02:46:26;;;;;;;17.30;9.85;;;;;;;;;;5013318;28;20382;-40
2022/04/03 02:48:52;;;;;;;17.20;9.50;;;;;;;;;;5013363;28;20026;-39
2022/04/03 02:51:17;;;;;;;16.45;9.60;;;;;;;;;;5013237;28;20072;-44
2022/04/03 02:53:43;;;;;;;18.90;10.48;;;;;;;;;;5013500;28;20018;-39
2022/04/03 02:56:09;;;;;;;17.02;9.40;;;;;;;;;;5013082;28;20026;-44
2022/04/03 02:58:34;;;;;;;15.23;9.75;;;;;;;;;;5013250;28;20159;-43
2022/04/03 03:01:00;;;;;;;14.02;10.20;;;;;;;;;;5013068;28;20029;-45
2022/04/03 03:03:25;;;;;;;19.27;10.13;;;;;;;;;;5012981;28;20014;-48
2022/04/03 03:05:51;;;;;;;15.10;9.85;;;;;;;;;;5013408;28;20359;-40
2022/04/03 03:08:18;;;;;;;16.45;10.70;;;;;;;;;;5013117;28;20045;-43
2022/04/03 03:10:43;;;;;;;16.17;9.35;;;;;;;;;;5013215;28;20132;-42
2022/04/03 03:13:09;;;;;;;15.30;9.57;;;;;;;;;;5013201;28;20054;-44
2022/04/03 03:15:34;;;;;;;12.95;9.57;;;;;;;;;;5012841;28;20030;-41
2022/04/03 03:18:00;;;;;;;16.30;9.95;;;;;;;;;;5012692;28;20036;-45
2022/04/03 03:20:26;;;;;;;16.25;9.88;;;;;;;;;;5012870;28;20029;-43
2022/04/03 03:22:52;;;;;;;14.88;9.75;;;;;;;;;;5012784;28;20096;-43
2022/04/03 03:25:18;;;;;;;15.57;10.18;;;;;;;;;;5012665;28;20029;-43
2022/04/03 03:27:43;;;;;;;13.25;9.27;;;;;;;;;;5012814;28;20026;-44
2022/04/03 03:30:11;;;;;;;16.92;9.75;;;;;;;;;;5012988;28;20026;-43
2022/04/03 03:32:37;;;;;;;15.38;9.68;;;;;;;;;;5013017;28;20025;-44
2022/04/03 03:35:03;;;;;;;21.60;10.23;;;;;;;;;;5012638;28;20504;-44
2022/04/03 03:37:28;;;;;;;14.60;8.70;;;;;;;;;;5012454;28;20383;-43
2022/04/03 03:39:54;;;;;;;15.80;9.93;;;;;;;;;;5012679;28;20034;-45
2022/04/03 03:42:20;;;;;;;16.95;9.73;;;;;;;;;;5012899;28;20065;-44
2022/04/03 03:44:46;;;;;;;17.75;8.57;;;;;;;;;;5012904;28;20021;-45
2022/04/03 03:47:11;;;;;;;14.60;8.65;;;;;;;;;;5012702;28;20459;-45
2022/04/03 03:49:38;;;;;;;15.18;9.85;;;;;;;;;;5012569;28;20390;-45
2022/04/03 03:52:04;;;;;;;14.05;9.10;;;;;;;;;;5012394;28;20490;-42
2022/04/03 03:54:29;;;;;;;15.35;9.80;;;;;;;;;;5012066;28;20474;-45
2022/04/03 03:56:55;;;;;;;14.30;9.35;;;;;;;;;;5012384;28;20076;-46
2022/04/03 03:59:20;;;;;;;17.25;10.00;;;;;;;;;;4994904;28;20173;-44
2022/04/03 04:01:46;;;;;;;13.10;9.38;;;;;;;;;;5011907;28;20030;-44
2022/04/03 04:04:11;;;;;;;12.65;8.85;;;;;;;;;;5012120;28;20088;-44
2022/04/03 04:06:37;;;;;;;12.45;8.75;;;;;;;;;;5012626;28;20053;-39
2022/04/03 04:09:03;;;;;;;13.88;9.35;;;;;;;;;;5012665;28;20181;-39
2022/04/03 04:11:28;;;;;;;14.15;9.30;;;;;;;;;;5012398;28;20570;-39
2022/04/03 04:13:54;;;;;;;17.13;9.85;;;;;;;;;;5012325;28;20034;-39
2022/04/03 04:16:19;;;;;;;13.73;9.50;;;;;;;;;;5011062;28;20081;-39
2022/04/03 04:18:45;;;;;;;15.80;9.10;;;;;;;;;;5012559;28;20034;-39
2022/04/03 04:21:11;;;;;;;17.17;10.27;;;;;;;;;;5012278;28;20058;-44
2022/04/03 04:23:37;;;;;;;15.48;9.65;;;;;;;;;;5012482;28;20034;-44
2022/04/03 04:26:02;;;;;;;14.13;8.73;;;;;;;;;;5012335;28;20434;-48
2022/04/03 04:28:28;;;;;;;13.85;8.32;;;;;;;;;;5012762;28;20076;-39
2022/04/03 04:30:56;;;;;;;15.77;9.82;;;;;;;;;;5015946;28;20060;-39
2022/04/03 04:33:22;;;;;;;15.32;8.88;;;;;;;;;;5015911;28;20030;-44
2022/04/03 04:35:47;;;;;;;11.68;8.15;;;;;;;;;;5016105;28;20033;-43
2022/04/03 04:38:13;;;;;;;19.10;13.68;;;;;;;;;;5015823;28;20041;-38
2022/04/03 04:40:38;;;;;;;25.73;14.27;;;;;;;;;;5016059;28;20036;-38
2022/04/03 04:43:04;;;;;;;32.95;19.70;;;;;;;;;;5015922;28;20029;-39
2022/04/03 04:45:29;;;;;;;29.17;17.05;;;;;;;;;;5016057;28;20513;-42
2022/04/03 04:48:00;;;;;;;31.63;17.77;;;;;;;;;;4998070;28;20375;-38
2022/04/03 04:50:27;;;;;;;40.80;24.27;;;;;;;;;;5015759;28;20026;-43
2022/04/03 04:52:53;;;;;;;29.63;16.67;;;;;;;;;;5015533;28;20076;-40
2022/04/03 04:55:19;;;;;;;39.63;21.23;;;;;;;;;;4997844;28;20030;-44
2022/04/03 04:57:55;;;;;;;43.03;25.60;;;;;;;;;;5015646;28;20052;-38
2022/04/03 05:00:22;;;;;;;20.75;13.25;;;;;;;;;;5015849;28;20389;-41
2022/04/03 05:02:48;;;;;;;43.42;23.13;;;;;;;;;;5015462;28;20037;-38
2022/04/03 05:05:18;;;;;;;34.67;18.73;;;;;;;;;;5015374;28;20026;-43
2022/04/03 05:07:44;;;;;;;46.67;26.55;;;;;;;;;;5015332;28;20025;-41
2022/04/03 05:10:13;;;;;;;39.15;22.05;;;;;;;;;;5015241;28;20505;-41
2022/04/03 05:12:39;;;;;;;25.48;15.18;;;;;;;;;;5015274;28;20028;-39
2022/04/03 05:15:08;;;;;;;32.42;17.83;;;;;;;;;;5015366;28;20116;-38
2022/04/03 05:17:34;;;;;;;23.92;14.15;;;;;;;;;;5015348;28;20079;-40
2022/04/03 05:19:59;;;;;;;27.33;16.00;;;;;;;;;;5015382;28;20037;-42
2022/04/03 05:22:26;;;;;;;16.35;9.85;;;;;;;;;;5015380;28;20022;-41
2022/04/03 05:24:51;;;;;;;25.80;15.32;;;;;;;;;;5015026;28;20164;-46
2022/04/03 05:27:17;;;;;;;15.52;10.77;;;;;;;;;;5014854;28;20109;-44
2022/04/03 05:29:43;;;;;;;18.00;12.60;;;;;;;;;;5015216;28;20037;-43
2022/04/03 05:32:09;;;;;;;28.15;16.00;;;;;;;;;;5014879;28;20022;-44
2022/04/03 05:34:34;;;;;;;18.75;11.15;;;;;;;;;;5015039;28;20041;-42
2022/04/03 05:36:59;;;;;;;23.75;12.90;;;;;;;;;;5014845;28;20030;-43
2022/04/03 05:39:25;;;;;;;22.65;12.93;;;;;;;;;;5014282;28;20088;-44
2022/04/03 05:41:54;;;;;;;14.75;9.38;;;;;;;;;;5014790;28;20037;-43
2022/04/03 05:44:19;;;;;;;16.60;10.45;;;;;;;;;;5014635;28;20030;-44
2022/04/03 05:46:45;;;;;;;14.75;9.18;;;;;;;;;;5014591;28;20064;-42
2022/04/03 05:49:10;;;;;;;18.13;11.02;;;;;;;;;;5014538;28;20030;-44
2022/04/03 05:51:37;;;;;;;8.82;6.50;;;;;;;;;;5014425;28;20049;-42
2022/04/03 05:54:03;;;;;;;16.55;9.27;;;;;;;;;;5014296;28;20054;-44
2022/04/03 05:56:31;;;;;;;17.15;9.55;;;;;;;;;;5014440;28;20032;-43
2022/04/03 05:58:56;;;;;;;12.90;6.78;;;;;;;;;;5014319;28;20105;-38
2022/04/03 06:01:22;;;;;;;16.90;9.82;;;;;;;;;;5014255;28;20153;-42
2022/04/03 06:03:48;;;;;;;11.38;7.15;;;;;;;;;;5014220;28;20034;-44
2022/04/03 06:06:13;;;;;;;17.50;7.60;;;;;;;;;;5014272;28;20073;-42
2022/04/03 06:08:39;;;;;;;16.25;8.85;;;;;;;;;;5014192;28;20072;-45
2022/04/03 06:11:04;;;;;;;19.20;10.38;;;;;;;;;;5014029;28;20037;-42
2022/04/03 06:13:30;;;;;;;14.90;8.75;;;;;;;;;;5014189;28;20049;-43
2022/04/03 06:15:55;;;;;;;20.35;11.05;;;;;;;;;;5014272;28;20052;-41
2022/04/03 06:18:21;;;;;;;21.70;10.50;;;;;;;;;;5013970;28;20018;-43
2022/04/03 06:20:47;;;;;;;20.23;10.82;;;;;;;;;;5014190;28;20029;-44
2022/04/03 06:23:17;;;;;;;15.30;9.20;;;;;;;;;;5014122;28;20030;-43
2022/04/03 06:25:44;;;;;;;9.93;5.70;;;;;;;;;;5014227;28;20022;-44
2022/04/03 06:28:10;;;;;;;26.67;13.65;;;;;;;;;;5013807;28;20034;-44
2022/04/03 06:30:36;;;;;;;15.98;9.35;;;;;;;;;;5014009;28;20053;-48
2022/04/03 06:33:02;;;;;;;19.77;11.13;;;;;;;;;;5013923;28;20069;-39
2022/04/03 06:35:27;;;;;;;14.10;8.77;;;;;;;;;;5013858;28;20026;-47
2022/04/03 06:37:52;;;;;;;15.20;8.63;;;;;;;;;;5013879;28;20072;-42
2022/04/03 06:40:18;;;;;;;13.10;8.43;;;;;;;;;;5013664;28;20036;-44
2022/04/03 06:42:43;;;;;;;15.60;8.80;;;;;;;;;;5013896;28;20034;-43
2022/04/03 06:45:09;;;;;;;11.40;6.45;;;;;;;;;;5011805;28;20032;-38
2022/04/03 06:47:36;;;;;;;12.77;8.15;;;;;;;;;;5011720;28;20034;-42
2022/04/03 06:50:03;;;;;;;7.57;5.55;;;;;;;;;;5012318;28;20112;-42
2022/04/03 06:52:28;;;;;;;11.32;6.82;;;;;;;;;;5010987;28;20494;-39
2022/04/03 06:54:54;;;;;;;11.90;7.28;;;;;;;;;;5012797;28;20075;-42
2022/04/03 06:57:20;;;;;;;12.98;8.23;;;;;;;;;;5013032;28;20378;-40
2022/04/03 06:59:46;;;;;;;10.95;7.50;;;;;;;;;;5013314;28;20014;-40
2022/04/03 07:02:11;;;;;;;15.52;8.10;;;;;;;;;;5013671;28;20033;-39
2022/04/03 07:04:37;;;;;;;10.95;7.07;;;;;;;;;;5013493;28;20029;-42
2022/04/03 07:07:03;;;;;;;11.30;7.20;;;;;;;;;;5013384;28;20429;-45
2022/04/03 07:09:29;;;;;;;11.48;6.32;;;;;;;;;;5013160;28;20466;-42
2022/04/03 07:11:55;;;;;;;9.93;6.93;;;;;;;;;;5013391;28;20097;-44
2022/04/03 07:14:21;;;;;;;10.95;6.82;;;;;;;;;;5013310;28;20541;-39
2022/04/03 07:16:46;;;;;;;9.98;6.65;;;;;;;;;;5013051;28;20490;-39
2022/04/03 07:19:11;;;;;;;11.85;7.57;;;;;;;;;;5012919;28;20025;-39
2022/04/03 07:21:37;;;;;;;11.52;7.13;;;;;;;;;;5013220;28;20378;-39
2022/04/03 07:24:04;;;;;;;11.13;7.10;;;;;;;;;;5013238;28;20105;-45
2022/04/03 07:26:30;;;;;;;13.60;7.18;;;;;;;;;;5013155;28;20139;-44
2022/04/03 07:28:56;;;;;;;10.73;6.93;;;;;;;;;;5013063;28;20032;-47
2022/04/03 07:31:22;;;;;;;13.05;7.43;;;;;;;;;;5013117;28;20113;-42
2022/04/03 07:33:47;;;;;;;8.43;6.03;;;;;;;;;;5012683;28;20026;-42
2022/04/03 07:36:13;;;;;;;10.23;6.28;;;;;;;;;;5013078;28;20098;-40
2022/04/03 07:38:39;;;;;;;7.38;5.20;;;;;;;;;;5012770;28;20021;-42
2022/04/03 07:41:04;;;;;;;7.95;5.57;;;;;;;;;;5012654;28;20474;-39
2022/04/03 07:43:30;;;;;;;8.25;5.72;;;;;;;;;;5012601;28;20034;-39
2022/04/03 07:45:57;;;;;;;8.35;5.60;;;;;;;;;;5012843;28;20030;-39
2022/04/03 07:48:22;;;;;;;8.55;5.78;;;;;;;;;;5012859;28;20025;-40
2022/04/03 07:50:47;;;;;;;7.18;5.28;;;;;;;;;;5012414;28;20058;-40
2022/04/03 07:53:13;;;;;;;7.68;5.93;;;;;;;;;;5012503;28;20030;-40
2022/04/03 07:55:38;;;;;;;8.00;5.50;;;;;;;;;;5012429;28;20036;-39
2022/04/03 07:58:06;;;;;;;7.85;5.57;;;;;;;;;;5012547;28;20036;-43
2022/04/03 08:00:33;;;;;;;9.20;5.85;;;;;;;;;;5012715;28;20106;-40
2022/04/03 08:02:58;;;;;;;8.13;5.13;;;;;;;;;;5014128;28;20026;-45
2022/04/03 08:05:24;;;;;;;8.80;5.60;;;;;;;;;;5016513;28;20470;-43
2022/04/03 08:07:49;;;;;;;9.15;5.53;;;;;;;;;;5016532;28;20062;-42
2022/04/03 08:10:17;;;;;;;9.00;5.93;;;;;;;;;;5016508;28;20030;-39
2022/04/03 08:12:48;;;;;;;8.18;5.22;;;;;;;;;;5016621;28;20359;-39
2022/04/03 08:15:14;;;;;;;;;;;;;;;;;;5016821;28;20030;-40
2022/04/03 08:17:40;;;;;;;8.10;5.38;;;;;;;;;;5016294;28;20008;-39
2022/04/03 08:20:08;;;;;;;9.80;5.72;;;;;;;;;;5016273;28;20105;-39
2022/04/03 08:22:33;;;;;;;10.82;6.70;;;;;;;;;;5016219;28;20022;-44
2022/04/03 08:24:59;;;;;;;11.10;7.43;;;;;;;;;;5016061;28;20101;-44
2022/04/03 08:27:24;;;;;;;13.68;7.93;;;;;;;;;;5016324;28;20029;-39
2022/04/03 08:29:50;;;;;;;12.60;8.02;;;;;;;;;;4998433;28;20030;-42
2022/04/03 08:32:15;;;;;;;12.60;7.70;;;;;;;;;;5015815;28;20030;-43
2022/04/03 08:34:41;;;;;;;14.48;7.30;;;;;;;;;;5016045;28;20030;-43
2022/04/03 08:37:07;;;;;;;13.00;7.68;;;;;;;;;;5015820;28;20111;-41
2022/04/03 08:39:33;;;;;;;15.73;8.65;;;;;;;;;;5015595;28;20025;-43
2022/04/03 08:41:58;;;;;;;16.17;9.77;;;;;;;;;;5015730;28;20030;-41
2022/04/03 08:44:25;;;;;;;19.92;9.20;;;;;;;;;;5015629;28;20030;-42
2022/04/03 08:46:50;;;;;;;14.05;7.30;;;;;;;;;;5015834;28;20037;-42
2022/04/03 08:49:18;;;;;;;16.15;7.22;;;;;;;;;;5015807;28;20029;-42
2022/04/03 08:51:43;;;;;;;10.73;6.70;;;;;;;;;;4997708;28;20092;-43
2022/04/03 08:54:10;;;;;;;12.43;7.15;;;;;;;;;;5015732;28;20042;-40
2022/04/03 08:56:36;;;;;;;11.77;7.32;;;;;;;;;;5015796;28;20061;-39
2022/04/03 08:59:02;;;;;;;15.40;8.35;;;;;;;;;;5015409;28;20474;-45
2022/04/03 09:01:28;;;;;;;11.63;7.15;;;;;;;;;;5015342;28;20104;-42
2022/04/03 09:03:54;;;;;;;11.02;7.32;;;;;;;;;;5015592;28;20448;-48
2022/04/03 09:06:21;;;;;;;11.45;7.05;;;;;;;;;;5015434;28;20026;-45
2022/04/03 09:08:48;;;;;;;9.02;6.13;;;;;;;;;;5015455;28;20528;-41
2022/04/03 09:11:15;;;;;;;8.50;5.93;;;;;;;;;;4997961;28;20068;-42
2022/04/03 09:13:42;;;;;;;7.85;5.30;;;;;;;;;;5014796;28;20382;-46
2022/04/03 09:16:09;;;;;;;8.65;5.97;;;;;;;;;;5014313;28;20046;-43
2022/04/03 09:18:49;;;;;;;9.40;6.03;;;;;;;;;;5012089;28;20042;-39
2022/04/03 09:21:23;;;;;;;9.57;6.45;;;;;;;;;;5015475;28;20456;-39
2022/04/03 09:24:12;;;;;;;12.20;7.20;;;;;;;;;;5015133;28;20034;-43
2022/04/03 09:26:42;;;;;;;11.20;7.20;;;;;;;;;;5015003;28;20037;-44
2022/04/03 09:29:15;;;;;;;14.27;8.67;;;;;;;;;;5014952;28;20514;-42
2022/04/03 09:31:42;;;;;;;13.38;8.52;;;;;;;;;;5015203;28;20026;-43
2022/04/03 09:34:17;;;;;;;15.30;9.20;;;;;;;;;;5015123;28;20029;-44
2022/04/03 09:36:53;;;;;;;13.88;9.32;;;;;;;;;;5015155;28;20053;-42
2022/04/03 09:39:24;;;;;;;18.65;10.95;;;;;;;;;;5014816;28;20145;-45
2022/04/03 09:42:01;;;;;;;19.90;12.05;;;;;;;;;;5014970;28;20386;-41
2022/04/03 09:44:28;;;;;;;28.77;16.60;;;;;;;;;;5015046;28;20060;-39
2022/04/03 09:47:16;;;;;;;24.75;15.18;;;;;;;;;;5014958;28;20128;-39
2022/04/03 09:49:44;;;;;;;32.13;16.35;;;;;;;;;;5014521;28;20482;-45
2022/04/03 09:52:10;;;;;;;30.05;16.63;;;;;;;;;;5014238;28;20049;-44
2022/04/03 09:54:39;;;;;;;30.70;16.15;;;;;;;;;;5014704;28;20026;-41
2022/04/03 09:57:19;;;;;;;28.10;14.57;;;;;;;;;;5014729;28;20475;-42
2022/04/03 09:59:53;;;;;;;20.33;12.60;;;;;;;;;;5014382;28;20259;-42
2022/04/03 10:02:20;;;;;;;20.98;13.77;;;;;;;;;;5014667;28;20113;-42
2022/04/03 10:04:46;;;;;;;21.50;14.07;;;;;;;;;;5014596;28;20113;-44
2022/04/03 10:07:15;;;;;;;25.27;15.05;;;;;;;;;;5014240;28;20049;-44
2022/04/03 10:09:48;;;;;;;26.27;14.50;;;;;;;;;;5014494;28;20524;-44
2022/04/03 10:12:16;;;;;;;32.75;18.13;;;;;;;;;;5014214;28;20092;-42
2022/04/03 10:14:46;;;;;;;29.40;17.17;;;;;;;;;;5014299;28;20053;-39
2022/04/03 10:17:13;;;;;;;27.15;16.80;;;;;;;;;;5014077;28;20029;-39
2022/04/03 10:19:40;;;;;;;22.25;13.90;;;;;;;;;;5014299;28;20052;-46
2022/04/03 10:22:11;;;;;;;19.10;13.02;;;;;;;;;;5014267;28;20037;-44
2022/04/03 10:24:39;;;;;;;18.90;11.80;;;;;;;;;;5013970;28;20034;-42
2022/04/03 10:27:39;;;;;;;19.85;12.40;;;;;;;;;;5013063;28;20037;-42
2022/04/03 10:30:06;;;;;;;19.60;13.00;;;;;;;;;;5013895;28;20438;-39
2022/04/03 10:32:34;;;;;;;23.38;12.95;;;;;;;;;;5013739;28;20275;-38
2022/04/03 10:35:04;;;;;;;21.98;12.27;;;;;;;;;;5013612;28;20040;-39
2022/04/03 10:37:41;;;;;;;19.83;11.18;;;;;;;;;;5013120;28;20041;-44
2022/04/03 10:40:08;;;;;;;16.00;10.75;;;;;;;;;;5013029;28;20038;-43
2022/04/03 10:42:58;;;;;;;20.85;12.57;;;;;;;;;;5012984;28;20032;-40
2022/04/03 10:45:30;;;;;;;17.33;11.50;;;;;;;;;;5012643;28;20109;-43
2022/04/03 10:48:20;;;;;;;17.95;11.45;;;;;;;;;;5013704;28;20113;-43
2022/04/03 10:50:55;;;;;;;19.52;10.63;;;;;;;;;;5013146;28;20050;-41
2022/04/03 10:53:25;;;;;;;22.15;11.00;;;;;;;;;;5013705;28;20398;-41
2022/04/03 10:55:56;;;;;;;19.83;11.85;;;;;;;;;;5013627;28;20065;-39
2022/04/03 10:58:21;;;;;;;;;;;;;;;;;;5013685;28;20072;-41
2022/04/03 11:00:49;;;;;;;21.17;11.90;;;;;;;;;;5013259;28;19913;-40
2022/04/03 11:03:14;;;;;;;23.23;13.18;;;;;;;;;;5013198;28;20026;-39
2022/04/03 11:05:46;;;;;;;19.67;13.30;;;;;;;;;;5012504;28;20037;-41
2022/04/03 11:08:11;;;;;;;29.90;14.32;;;;;;;;;;5010717;28;20022;-39
2022/04/03 11:11:13;;;;;;;22.98;13.20;;;;;;;;;;5012588;28;20105;-41
2022/04/03 11:13:39;;;;;;;29.73;14.75;;;;;;;;;;5008179;28;20038;-41
2022/04/03 11:16:06;;;;;;;21.88;13.88;;;;;;;;;;5012461;28;20033;-40
2022/04/03 11:18:37;;;;;;;23.23;15.15;;;;;;;;;;5012651;28;20038;-39
2022/04/03 11:21:10;;;;;;;23.27;13.15;;;;;;;;;;5013310;28;20028;-39
2022/04/03 11:23:41;;;;;;;24.83;12.05;;;;;;;;;;5012930;28;20109;-39
2022/04/03 11:26:07;;;;;;;16.50;10.73;;;;;;;;;;5013011;28;20497;-39
2022/04/03 11:28:36;;;;;;;26.20;13.02;;;;;;;;;;5012919;28;20036;-39
2022/04/03 11:31:04;;;;;;;19.65;13.07;;;;;;;;;;5012375;28;20032;-39
2022/04/03 11:33:30;;;;;;;25.73;13.15;;;;;;;;;;5012395;28;20038;-43
2022/04/03 11:36:02;;;;;;;18.25;12.43;;;;;;;;;;5012110;28;20044;-39
2022/04/03 11:38:34;;;;;;;25.20;12.20;;;;;;;;;;5011757;28;20022;-41
2022/04/03 11:41:02;;;;;;;18.52;11.80;;;;;;;;;;5012166;28;20028;-42
2022/04/03 11:43:28;;;;;;;19.48;11.63;;;;;;;;;;5012249;28;20035;-40
2022/04/03 11:45:58;;;;;;;20.38;12.07;;;;;;;;;;5011918;28;20418;-40
2022/04/03 11:48:32;;;;;;;15.88;10.93;;;;;;;;;;5011792;28;20021;-39
2022/04/03 11:51:15;;;;;;;17.05;10.90;;;;;;;;;;5012075;28;20046;-39
2022/04/03 11:53:43;;;;;;;15.02;10.38;;;;;;;;;;5011671;28;20059;-40
2022/04/03 11:56:14;;;;;;;18.13;11.00;;;;;;;;;;5011576;28;20536;-39
2022/04/03 11:58:43;;;;;;;14.52;9.60;;;;;;;;;;5011879;28;20042;-42
2022/04/03 12:01:09;;;;;;;14.25;9.10;;;;;;;;;;5012088;28;20014;-39
2022/04/03 12:03:36;;;;;;;13.05;8.32;;;;;;;;;;5011824;28;20041;-42
2022/04/03 12:06:18;;;;;;;9.23;6.18;;;;;;;;;;5012048;28;20026;-39
2022/04/03 12:08:46;;;;;;;11.50;7.20;;;;;;;;;;5012015;28;20014;-40
2022/04/03 12:11:29;;;;;;;12.32;7.97;;;;;;;;;;5011637;28;20068;-39
2022/04/03 12:13:59;;;;;;;12.40;7.93;;;;;;;;;;5010568;28;20100;-41
2022/04/03 12:16:27;;;;;;;15.00;8.65;;;;;;;;;;5008960;28;20485;-39
2022/04/03 12:19:01;;;;;;;13.50;8.88;;;;;;;;;;5011780;28;20037;-43
2022/04/03 12:21:37;;;;;;;13.88;8.85;;;;;;;;;;5009237;28;20382;-39
2022/04/03 12:24:08;;;;;;;18.63;8.55;;;;;;;;;;5011939;28;20034;-40
2022/04/03 12:26:34;;;;;;;19.08;9.75;;;;;;;;;;5012514;28;20109;-39
2022/04/03 12:29:01;;;;;;;14.05;8.95;;;;;;;;;;5012204;28;20036;-39
2022/04/03 12:31:31;;;;;;;15.00;8.75;;;;;;;;;;5012468;28;20026;-40
2022/04/03 12:34:10;;;;;;;9.82;7.72;;;;;;;;;;5012114;28;20033;-39
2022/04/03 12:36:50;;;;;;;13.95;8.52;;;;;;;;;;5012219;28;20034;-39
2022/04/03 12:40:00;;;;;;;21.42;8.48;;;;;;;;;;5010983;28;20030;-40
2022/04/03 12:42:37;;;;;;;15.52;8.27;;;;;;;;;;5010516;28;20034;-42
2022/04/03 12:45:12;;;;;;;13.23;7.53;;;;;;;;;;5012095;28;20033;-40
2022/04/03 12:47:47;;;;;;;12.95;8.15;;;;;;;;;;5012038;28;20022;-45
2022/04/03 12:50:20;;;;;;;14.30;8.52;;;;;;;;;;5013532;28;20450;-46
2022/04/03 12:52:46;;;;;;;16.10;8.85;;;;;;;;;;5015481;28;20057;-44
2022/04/03 12:55:21;;;;;;;16.25;9.45;;;;;;;;;;5015547;28;20025;-44
2022/04/03 13:00:44;;;;;;;12.10;8.32;;;;;;;;;;5015622;28;20040;-40
2022/04/03 13:03:10;;;;;;;13.30;8.57;;;;;;;;;;5015504;28;20045;-40
2022/04/03 13:05:38;;;;;;;14.32;8.70;;;;;;;;;;5012587;28;20069;-47
2022/04/03 13:08:11;;;;;;;16.60;8.38;;;;;;;;;;4997814;28;20030;-48
2022/04/03 13:10:59;;;;;;;10.40;8.13;;;;;;;;;;5015467;28;20449;-45
2022/04/03 13:13:29;;;;;;;12.63;7.68;;;;;;;;;;5015081;28;20022;-40
2022/04/03 13:15:56;;;;;;;12.25;7.88;;;;;;;;;;5014802;28;20037;-42
2022/04/03 13:18:22;;;;;;;11.40;8.00;;;;;;;;;;5013109;28;20427;-39
2022/04/03 13:20:49;;;;;;;14.85;8.02;;;;;;;;;;5014875;28;20072;-39
2022/04/03 13:23:16;;;;;;;15.32;8.30;;;;;;;;;;5015114;28;20038;-42
2022/04/03 13:25:41;;;;;;;13.82;8.20;;;;;;;;;;5015196;28;20037;-40
2022/04/03 13:28:06;;;;;;;15.70;7.78;;;;;;;;;;5014932;28;20025;-39
2022/04/03 13:30:33;;;;;;;13.98;8.45;;;;;;;;;;5015295;28;20101;-38
2022/04/03 13:32:59;;;;;;;12.55;8.35;;;;;;;;;;5014798;28;20022;-39
2022/04/03 13:35:25;;;;;;;12.20;8.18;;;;;;;;;;5014959;28;20049;-39
2022/04/03 13:37:51;;;;;;;12.68;7.45;;;;;;;;;;5014855;28;20643;-39
2022/04/03 13:40:17;;;;;;;13.02;7.70;;;;;;;;;;5014770;28;20347;-39
2022/04/03 13:42:43;;;;;;;14.27;7.43;;;;;;;;;;5014718;28;20410;-39
2022/04/03 13:45:08;;;;;;;14.25;8.90;;;;;;;;;;5014937;28;20409;-39
2022/04/03 13:47:34;;;;;;;11.73;7.80;;;;;;;;;;5014780;28;20030;-39
2022/04/03 13:49:59;;;;;;;14.10;8.23;;;;;;;;;;5014651;28;20423;-39
2022/04/03 13:52:25;;;;;;;11.77;8.38;;;;;;;;;;5014322;28;20100;-39
2022/04/03 13:54:50;;;;;;;14.13;7.97;;;;;;;;;;5014635;28;20022;-39
2022/04/03 13:57:17;;;;;;;11.43;7.90;;;;;;;;;;5014358;28;20033;-39
2022/04/03 13:59:42;;;;;;;12.93;7.45;;;;;;;;;;5014392;28;20037;-39
2022/04/03 14:02:08;;;;;;;11.40;6.72;;;;;;;;;;5014289;28;20080;-39
2022/04/03 14:04:33;;;;;;;11.35;7.30;;;;;;;;;;5014445;28;20374;-39
2022/04/03 14:06:59;;;;;;;13.02;7.63;;;;;;;;;;5014228;28;20433;-38
2022/04/03 14:09:24;;;;;;;11.43;7.13;;;;;;;;;;5014182;28;20029;-39
2022/04/03 14:11:51;;;;;;;13.27;7.47;;;;;;;;;;5014491;28;20053;-38
2022/04/03 14:14:16;;;;;;;12.07;8.50;;;;;;;;;;5013404;28;20102;-38
2022/04/03 14:16:42;;;;;;;9.68;7.03;;;;;;;;;;5014340;28;20038;-38
2022/04/03 14:19:07;;;;;;;10.55;7.57;;;;;;;;;;5014046;28;20018;-39
2022/04/03 14:21:33;;;;;;;14.63;8.10;;;;;;;;;;5014309;28;20034;-39
2022/04/03 14:24:04;;;;;;;14.43;8.48;;;;;;;;;;5014226;28;20037;-38
2022/04/03 14:26:30;;;;;;;11.70;7.32;;;;;;;;;;5013860;28;20033;-39
2022/04/03 14:28:56;;;;;;;10.95;7.57;;;;;;;;;;5014136;28;20470;-39
2022/04/03 14:31:22;;;;;;;12.18;7.63;;;;;;;;;;5013755;28;20029;-39